sensor_id;sensor_type;location;lat;lon;timestamp;temperature;humidity
8591;DHT22;4333;48.322;14.340;2023-05-07T00:00:56;12.40;99.90
8591;DHT22;4333;48.322;14.340;2023-05-07T00:03:25;12.30;99.90
8591;DHT22;4333;48.322;14.340;2023-05-07T00:05:51;12.30;99.90
8591;DHT22;4333;48.322;14.340;2023-05-07T00:08:20;12.30;99.90
8591;DHT22;4333;48.322;14.340;2023-05-07T00:10:48;12.30;99.90
8591;DHT22;4333;48.322;14.340;2023-05-07T00:13:14;12.30;99.90
8591;DHT22;4333;48.322;14.340;2023-05-07T00:15:42;12.30;99.90
8591;DHT22;4333;48.322;14.340;2023-05-07T00:18:11;12.40;99.90
8591;DHT22;4333;48.322;14.340;2023-05-07T00:20:36;12.40;99.90
8591;DHT22;4333;48.322;14.340;2023-05-07T00:23:05;12.30;99.90
8591;DHT22;4333;48.322;14.340;2023-05-07T00:25:31;12.20;99.90
8591;DHT22;4333;48.322;14.340;2023-05-07T00:27:58;12.20;99.90
8591;DHT22;4333;48.322;14.340;2023-05-07T00:30:30;12.10;99.90
8591;DHT22;4333;48.322;14.340;2023-05-07T00:32:56;12.10;99.90
8591;DHT22;4333;48.322;14.340;2023-05-07T00:35:22;12.10;99.90
8591;DHT22;4333;48.322;14.340;2023-05-07T00:37:51;12.10;99.90
8591;DHT22;4333;48.322;14.340;2023-05-07T00:40:16;12.10;99.90
8591;DHT22;4333;48.322;14.340;2023-05-07T00:42:42;12.10;99.90
8591;DHT22;4333;48.322;14.340;2023-05-07T00:45:15;12.10;99.90
8591;DHT22;4333;48.322;14.340;2023-05-07T00:47:47;12.10;99.90
8591;DHT22;4333;48.322;14.340;2023-05-07T00:50:12;12.10;99.90
8591;DHT22;4333;48.322;14.340;2023-05-07T00:52:39;12.10;99.90
8591;DHT22;4333;48.322;14.340;2023-05-07T00:55:06;12.10;99.90
8591;DHT22;4333;48.322;14.340;2023-05-07T00:57:37;12.00;99.90
8591;DHT22;4333;48.322;14.340;2023-05-07T01:00:04;12.10;99.90
8591;DHT22;4333;48.322;14.340;2023-05-07T01:02:31;12.00;99.90
8591;DHT22;4333;48.322;14.340;2023-05-07T01:05:00;12.00;99.90
8591;DHT22;4333;48.322;14.340;2023-05-07T01:07:27;12.00;99.90
8591;DHT22;4333;48.322;14.340;2023-05-07T01:09:53;12.00;99.90
8591;DHT22;4333;48.322;14.340;2023-05-07T01:12:22;12.00;99.90
8591;DHT22;4333;48.322;14.340;2023-05-07T01:14:48;12.10;99.90
8591;DHT22;4333;48.322;14.340;2023-05-07T01:17:16;12.10;99.90
8591;DHT22;4333;48.322;14.340;2023-05-07T01:19:44;12.10;99.90
8591;DHT22;4333;48.322;14.340;2023-05-07T01:22:15;12.10;99.90
8591;DHT22;4333;48.322;14.340;2023-05-07T01:24:42;12.20;99.90
8591;DHT22;4333;48.322;14.340;2023-05-07T01:27:11;12.20;99.90
8591;DHT22;4333;48.322;14.340;2023-05-07T01:29:37;12.10;99.90
8591;DHT22;4333;48.322;14.340;2023-05-07T01:32:08;12.10;99.90
8591;DHT22;4333;48.322;14.340;2023-05-07T01:34:37;12.10;99.90
8591;DHT22;4333;48.322;14.340;2023-05-07T01:37:03;12.10;99.90
8591;DHT22;4333;48.322;14.340;2023-05-07T01:39:33;12.10;99.90
8591;DHT22;4333;48.322;14.340;2023-05-07T01:42:02;12.10;99.90
8591;DHT22;4333;48.322;14.340;2023-05-07T01:44:30;12.10;99.90
8591;DHT22;4333;48.322;14.340;2023-05-07T01:46:56;12.10;99.90
8591;DHT22;4333;48.322;14.340;2023-05-07T01:49:25;12.20;99.90
8591;DHT22;4333;48.322;14.340;2023-05-07T01:51:54;12.20;99.90
8591;DHT22;4333;48.322;14.340;2023-05-07T01:54:25;12.30;99.90
8591;DHT22;4333;48.322;14.340;2023-05-07T01:56:53;12.30;99.90
8591;DHT22;4333;48.322;14.340;2023-05-07T01:59:19;12.30;99.90
8591;DHT22;4333;48.322;14.340;2023-05-07T02:01:47;12.30;99.90
8591;DHT22;4333;48.322;14.340;2023-05-07T02:04:14;12.30;99.90
8591;DHT22;4333;48.322;14.340;2023-05-07T02:06:40;12.40;99.90
8591;DHT22;4333;48.322;14.340;2023-05-07T02:09:09;12.30;99.90
8591;DHT22;4333;48.322;14.340;2023-05-07T02:11:37;12.30;99.90
8591;DHT22;4333;48.322;14.340;2023-05-07T02:14:03;12.30;99.90
8591;DHT22;4333;48.322;14.340;2023-05-07T02:16:31;12.30;99.90
8591;DHT22;4333;48.322;14.340;2023-05-07T02:19:00;12.20;99.90
8591;DHT22;4333;48.322;14.340;2023-05-07T02:21:25;12.20;99.90
8591;DHT22;4333;48.322;14.340;2023-05-07T02:23:51;12.20;99.90
8591;DHT22;4333;48.322;14.340;2023-05-07T02:26:19;12.20;99.90
8591;DHT22;4333;48.322;14.340;2023-05-07T02:28:45;12.20;99.90
8591;DHT22;4333;48.322;14.340;2023-05-07T02:31:13;12.20;99.90
8591;DHT22;4333;48.322;14.340;2023-05-07T02:33:41;12.10;99.90
8591;DHT22;4333;48.322;14.340;2023-05-07T02:36:11;12.30;99.90
8591;DHT22;4333;48.322;14.340;2023-05-07T02:38:39;12.30;99.90
8591;DHT22;4333;48.322;14.340;2023-05-07T02:41:04;12.40;99.90
8591;DHT22;4333;48.322;14.340;2023-05-07T02:43:31;12.40;99.90
8591;DHT22;4333;48.322;14.340;2023-05-07T02:46:09;12.40;99.90
8591;DHT22;4333;48.322;14.340;2023-05-07T02:48:36;12.40;99.90
8591;DHT22;4333;48.322;14.340;2023-05-07T02:51:05;12.40;99.90
8591;DHT22;4333;48.322;14.340;2023-05-07T02:53:34;12.40;99.90
8591;DHT22;4333;48.322;14.340;2023-05-07T02:56:02;12.40;99.90
8591;DHT22;4333;48.322;14.340;2023-05-07T02:58:28;12.30;99.90
8591;DHT22;4333;48.322;14.340;2023-05-07T03:00:54;12.30;99.90
8591;DHT22;4333;48.322;14.340;2023-05-07T03:03:25;12.30;99.90
8591;DHT22;4333;48.322;14.340;2023-05-07T03:05:56;12.30;99.90
8591;DHT22;4333;48.322;14.340;2023-05-07T03:08:26;12.30;99.90
8591;DHT22;4333;48.322;14.340;2023-05-07T03:10:51;12.30;99.90
8591;DHT22;4333;48.322;14.340;2023-05-07T03:13:17;12.40;99.90
8591;DHT22;4333;48.322;14.340;2023-05-07T03:15:45;12.40;99.90
8591;DHT22;4333;48.322;14.340;2023-05-07T03:18:13;12.50;99.90
8591;DHT22;4333;48.322;14.340;2023-05-07T03:20:42;12.50;99.90
8591;DHT22;4333;48.322;14.340;2023-05-07T03:23:08;12.50;99.90
8591;DHT22;4333;48.322;14.340;2023-05-07T03:25:35;12.50;99.90
8591;DHT22;4333;48.322;14.340;2023-05-07T03:28:01;12.50;99.90
8591;DHT22;4333;48.322;14.340;2023-05-07T03:30:27;12.50;99.90
8591;DHT22;4333;48.322;14.340;2023-05-07T03:32:55;12.50;99.90
8591;DHT22;4333;48.322;14.340;2023-05-07T03:35:23;12.50;99.90
8591;DHT22;4333;48.322;14.340;2023-05-07T03:37:49;12.40;99.90
8591;DHT22;4333;48.322;14.340;2023-05-07T03:40:17;12.40;99.90
8591;DHT22;4333;48.322;14.340;2023-05-07T03:42:43;12.30;99.90
8591;DHT22;4333;48.322;14.340;2023-05-07T03:45:13;12.30;99.90
8591;DHT22;4333;48.322;14.340;2023-05-07T03:47:38;12.20;99.90
8591;DHT22;4333;48.322;14.340;2023-05-07T03:50:04;12.20;99.90
8591;DHT22;4333;48.322;14.340;2023-05-07T03:52:35;12.20;99.90
8591;DHT22;4333;48.322;14.340;2023-05-07T03:55:00;12.30;99.90
8591;DHT22;4333;48.322;14.340;2023-05-07T03:57:29;12.30;99.90
8591;DHT22;4333;48.322;14.340;2023-05-07T03:59:57;12.30;99.90
8591;DHT22;4333;48.322;14.340;2023-05-07T04:02:23;12.30;99.90
8591;DHT22;4333;48.322;14.340;2023-05-07T04:04:49;12.30;99.90
8591;DHT22;4333;48.322;14.340;2023-05-07T04:07:17;12.30;99.90
8591;DHT22;4333;48.322;14.340;2023-05-07T04:09:44;12.40;99.90
8591;DHT22;4333;48.322;14.340;2023-05-07T04:12:10;12.40;99.90
8591;DHT22;4333;48.322;14.340;2023-05-07T04:14:36;12.40;99.90
8591;DHT22;4333;48.322;14.340;2023-05-07T04:17:02;12.40;99.90
8591;DHT22;4333;48.322;14.340;2023-05-07T04:19:33;12.40;99.90
8591;DHT22;4333;48.322;14.340;2023-05-07T04:21:59;12.50;99.90
8591;DHT22;4333;48.322;14.340;2023-05-07T04:24:26;12.50;99.90
8591;DHT22;4333;48.322;14.340;2023-05-07T04:26:52;12.60;99.90
8591;DHT22;4333;48.322;14.340;2023-05-07T04:29:18;12.70;99.90
8591;DHT22;4333;48.322;14.340;2023-05-07T04:31:44;12.70;99.90
8591;DHT22;4333;48.322;14.340;2023-05-07T04:34:11;12.80;99.90
8591;DHT22;4333;48.322;14.340;2023-05-07T04:36:41;12.90;99.90
8591;DHT22;4333;48.322;14.340;2023-05-07T04:39:07;12.90;99.90
8591;DHT22;4333;48.322;14.340;2023-05-07T04:41:35;13.00;99.90
8591;DHT22;4333;48.322;14.340;2023-05-07T04:44:01;13.00;99.90
8591;DHT22;4333;48.322;14.340;2023-05-07T04:46:29;13.00;99.90
8591;DHT22;4333;48.322;14.340;2023-05-07T04:48:55;13.10;99.90
8591;DHT22;4333;48.322;14.340;2023-05-07T04:51:22;13.20;99.90
8591;DHT22;4333;48.322;14.340;2023-05-07T04:53:50;13.20;99.90
8591;DHT22;4333;48.322;14.340;2023-05-07T04:56:16;13.30;99.90
8591;DHT22;4333;48.322;14.340;2023-05-07T04:58:45;13.40;99.90
8591;DHT22;4333;48.322;14.340;2023-05-07T05:01:11;13.50;99.90
8591;DHT22;4333;48.322;14.340;2023-05-07T05:03:40;13.50;99.90
8591;DHT22;4333;48.322;14.340;2023-05-07T05:06:08;13.60;99.90
8591;DHT22;4333;48.322;14.340;2023-05-07T05:08:36;13.60;99.90
8591;DHT22;4333;48.322;14.340;2023-05-07T05:11:04;13.80;99.90
8591;DHT22;4333;48.322;14.340;2023-05-07T05:13:30;13.90;99.90
8591;DHT22;4333;48.322;14.340;2023-05-07T05:15:55;14.00;99.90
8591;DHT22;4333;48.322;14.340;2023-05-07T05:18:24;14.00;99.90
8591;DHT22;4333;48.322;14.340;2023-05-07T05:20:51;14.10;99.90
8591;DHT22;4333;48.322;14.340;2023-05-07T05:23:20;14.20;99.90
8591;DHT22;4333;48.322;14.340;2023-05-07T05:25:48;14.30;99.90
8591;DHT22;4333;48.322;14.340;2023-05-07T05:28:14;14.30;99.90
8591;DHT22;4333;48.322;14.340;2023-05-07T05:30:40;14.20;99.90
8591;DHT22;4333;48.322;14.340;2023-05-07T05:33:07;14.40;99.90
8591;DHT22;4333;48.322;14.340;2023-05-07T05:35:33;14.40;99.90
8591;DHT22;4333;48.322;14.340;2023-05-07T05:38:01;14.70;99.90
8591;DHT22;4333;48.322;14.340;2023-05-07T05:40:27;15.60;99.90
8591;DHT22;4333;48.322;14.340;2023-05-07T05:42:53;16.60;99.90
8591;DHT22;4333;48.322;14.340;2023-05-07T05:45:21;17.70;95.40
8591;DHT22;4333;48.322;14.340;2023-05-07T05:47:52;18.40;83.90
8591;DHT22;4333;48.322;14.340;2023-05-07T05:50:20;18.40;72.60
8591;DHT22;4333;48.322;14.340;2023-05-07T05:52:46;19.50;73.00
8591;DHT22;4333;48.322;14.340;2023-05-07T05:55:15;21.30;69.10
8591;DHT22;4333;48.322;14.340;2023-05-07T05:57:46;22.90;39.30
8591;DHT22;4333;48.322;14.340;2023-05-07T06:00:12;24.60;20.40
8591;DHT22;4333;48.322;14.340;2023-05-07T06:02:38;25.20;7.70
8591;DHT22;4333;48.322;14.340;2023-05-07T06:05:04;25.80;2.40
8591;DHT22;4333;48.322;14.340;2023-05-07T06:07:32;24.70;1.00
8591;DHT22;4333;48.322;14.340;2023-05-07T06:09:58;23.40;1.00
8591;DHT22;4333;48.322;14.340;2023-05-07T06:12:24;23.90;4.50
8591;DHT22;4333;48.322;14.340;2023-05-07T06:14:50;24.70;1.00
8591;DHT22;4333;48.322;14.340;2023-05-07T06:17:18;24.40;1.00
8591;DHT22;4333;48.322;14.340;2023-05-07T06:19:44;25.80;1.00
8591;DHT22;4333;48.322;14.340;2023-05-07T06:22:11;26.40;1.00
8591;DHT22;4333;48.322;14.340;2023-05-07T06:24:38;26.50;1.00
8591;DHT22;4333;48.322;14.340;2023-05-07T06:27:04;25.50;1.00
8591;DHT22;4333;48.322;14.340;2023-05-07T06:29:33;24.20;1.00
8591;DHT22;4333;48.322;14.340;2023-05-07T06:32:13;23.00;1.00
8591;DHT22;4333;48.322;14.340;2023-05-07T06:34:40;22.40;1.00
8591;DHT22;4333;48.322;14.340;2023-05-07T06:37:08;21.90;1.00
8591;DHT22;4333;48.322;14.340;2023-05-07T06:39:33;21.40;8.20
8591;DHT22;4333;48.322;14.340;2023-05-07T06:42:02;21.60;9.90
8591;DHT22;4333;48.322;14.340;2023-05-07T06:44:28;23.00;8.50
8591;DHT22;4333;48.322;14.340;2023-05-07T06:46:57;24.60;1.00
8591;DHT22;4333;48.322;14.340;2023-05-07T06:49:25;25.60;1.00
8591;DHT22;4333;48.322;14.340;2023-05-07T06:51:50;25.10;1.00
8591;DHT22;4333;48.322;14.340;2023-05-07T06:54:19;23.90;1.00
8591;DHT22;4333;48.322;14.340;2023-05-07T06:56:46;24.20;1.00
8591;DHT22;4333;48.322;14.340;2023-05-07T06:59:15;24.10;1.00
8591;DHT22;4333;48.322;14.340;2023-05-07T07:01:41;24.30;1.00
8591;DHT22;4333;48.322;14.340;2023-05-07T07:04:27;25.40;1.00
8591;DHT22;4333;48.322;14.340;2023-05-07T07:06:56;25.50;1.00
8591;DHT22;4333;48.322;14.340;2023-05-07T07:09:26;24.70;1.00
8591;DHT22;4333;48.322;14.340;2023-05-07T07:11:55;23.70;1.00
8591;DHT22;4333;48.322;14.340;2023-05-07T07:14:20;22.40;1.00
8591;DHT22;4333;48.322;14.340;2023-05-07T07:16:49;22.50;1.00
8591;DHT22;4333;48.322;14.340;2023-05-07T07:19:18;21.70;1.00
8591;DHT22;4333;48.322;14.340;2023-05-07T07:21:45;20.90;6.60
8591;DHT22;4333;48.322;14.340;2023-05-07T07:24:11;20.60;9.70
8591;DHT22;4333;48.322;14.340;2023-05-07T07:26:37;20.40;12.50
8591;DHT22;4333;48.322;14.340;2023-05-07T07:29:05;20.30;15.30
8591;DHT22;4333;48.322;14.340;2023-05-07T07:31:32;20.30;17.10
8591;DHT22;4333;48.322;14.340;2023-05-07T07:34:03;20.30;16.30
8591;DHT22;4333;48.322;14.340;2023-05-07T07:36:29;20.00;17.20
8591;DHT22;4333;48.322;14.340;2023-05-07T07:38:55;19.80;20.90
8591;DHT22;4333;48.322;14.340;2023-05-07T07:41:24;19.80;18.20
8591;DHT22;4333;48.322;14.340;2023-05-07T07:43:52;19.50;21.10
8591;DHT22;4333;48.322;14.340;2023-05-07T07:46:22;19.70;23.50
8591;DHT22;4333;48.322;14.340;2023-05-07T07:48:48;19.50;22.00
8591;DHT22;4333;48.322;14.340;2023-05-07T07:51:16;19.60;25.00
8591;DHT22;4333;48.322;14.340;2023-05-07T07:53:41;19.80;25.60
8591;DHT22;4333;48.322;14.340;2023-05-07T07:56:10;20.50;23.90
8591;DHT22;4333;48.322;14.340;2023-05-07T07:58:36;21.70;19.20
8591;DHT22;4333;48.322;14.340;2023-05-07T08:01:03;21.30;10.20
8591;DHT22;4333;48.322;14.340;2023-05-07T08:03:29;20.70;15.60
8591;DHT22;4333;48.322;14.340;2023-05-07T08:05:57;20.30;17.80
8591;DHT22;4333;48.322;14.340;2023-05-07T08:08:25;20.50;19.60
8591;DHT22;4333;48.322;14.340;2023-05-07T08:10:51;20.80;18.10
8591;DHT22;4333;48.322;14.340;2023-05-07T08:13:17;20.90;18.90
8591;DHT22;4333;48.322;14.340;2023-05-07T08:15:43;20.80;18.10
8591;DHT22;4333;48.322;14.340;2023-05-07T08:18:10;20.70;19.10
8591;DHT22;4333;48.322;14.340;2023-05-07T08:20:36;20.90;15.80
8591;DHT22;4333;48.322;14.340;2023-05-07T08:23:05;20.50;16.80
8591;DHT22;4333;48.322;14.340;2023-05-07T08:25:33;20.40;17.20
8591;DHT22;4333;48.322;14.340;2023-05-07T08:27:59;20.50;19.10
8591;DHT22;4333;48.322;14.340;2023-05-07T08:30:29;20.70;16.20
8591;DHT22;4333;48.322;14.340;2023-05-07T08:32:58;20.50;18.30
8591;DHT22;4333;48.322;14.340;2023-05-07T08:35:23;20.50;18.90
8591;DHT22;4333;48.322;14.340;2023-05-07T08:37:55;20.80;16.80
8591;DHT22;4333;48.322;14.340;2023-05-07T08:40:26;21.00;16.10
8591;DHT22;4333;48.322;14.340;2023-05-07T08:42:55;21.20;13.60
8591;DHT22;4333;48.322;14.340;2023-05-07T08:45:23;21.00;16.60
8591;DHT22;4333;48.322;14.340;2023-05-07T08:47:52;20.60;16.00
8591;DHT22;4333;48.322;14.340;2023-05-07T08:50:20;20.50;16.80
8591;DHT22;4333;48.322;14.340;2023-05-07T08:52:46;20.60;19.50
8591;DHT22;4333;48.322;14.340;2023-05-07T08:55:14;20.00;24.90
8591;DHT22;4333;48.322;14.340;2023-05-07T08:57:40;19.90;28.00
8591;DHT22;4333;48.322;14.340;2023-05-07T09:00:08;20.10;24.40
8591;DHT22;4333;48.322;14.340;2023-05-07T09:02:35;20.00;26.40
8591;DHT22;4333;48.322;14.340;2023-05-07T09:05:03;20.00;25.40
8591;DHT22;4333;48.322;14.340;2023-05-07T09:07:32;20.60;25.30
8591;DHT22;4333;48.322;14.340;2023-05-07T09:10:00;20.50;24.00
8591;DHT22;4333;48.322;14.340;2023-05-07T09:12:26;20.20;28.60
8591;DHT22;4333;48.322;14.340;2023-05-07T09:14:55;20.30;28.30
8591;DHT22;4333;48.322;14.340;2023-05-07T09:17:23;20.50;29.30
8591;DHT22;4333;48.322;14.340;2023-05-07T09:19:51;20.90;25.90
8591;DHT22;4333;48.322;14.340;2023-05-07T09:22:18;20.40;28.80
8591;DHT22;4333;48.322;14.340;2023-05-07T09:24:48;20.50;30.00
8591;DHT22;4333;48.322;14.340;2023-05-07T09:27:15;20.30;28.30
8591;DHT22;4333;48.322;14.340;2023-05-07T09:29:44;20.40;29.00
8591;DHT22;4333;48.322;14.340;2023-05-07T09:32:14;20.70;30.00
8591;DHT22;4333;48.322;14.340;2023-05-07T09:34:41;21.10;27.50
8591;DHT22;4333;48.322;14.340;2023-05-07T09:37:08;20.50;26.20
8591;DHT22;4333;48.322;14.340;2023-05-07T09:39:44;20.70;30.60
8591;DHT22;4333;48.322;14.340;2023-05-07T09:42:12;21.80;30.10
8591;DHT22;4333;48.322;14.340;2023-05-07T09:44:41;22.70;22.40
8591;DHT22;4333;48.322;14.340;2023-05-07T09:47:11;22.80;15.10
8591;DHT22;4333;48.322;14.340;2023-05-07T09:49:39;22.30;13.20
8591;DHT22;4333;48.322;14.340;2023-05-07T09:52:08;22.30;13.30
8591;DHT22;4333;48.322;14.340;2023-05-07T09:54:37;23.10;15.30
8591;DHT22;4333;48.322;14.340;2023-05-07T09:57:10;24.30;13.70
8591;DHT22;4333;48.322;14.340;2023-05-07T09:59:37;25.10;5.90
8591;DHT22;4333;48.322;14.340;2023-05-07T10:02:04;25.70;1.00
8591;DHT22;4333;48.322;14.340;2023-05-07T10:04:34;24.50;1.00
8591;DHT22;4333;48.322;14.340;2023-05-07T10:07:03;23.70;2.20
8591;DHT22;4333;48.322;14.340;2023-05-07T10:09:30;23.70;5.60
8591;DHT22;4333;48.322;14.340;2023-05-07T10:11:56;23.30;5.30
8591;DHT22;4333;48.322;14.340;2023-05-07T10:14:30;22.80;9.70
8591;DHT22;4333;48.322;14.340;2023-05-07T10:16:56;22.70;7.20
8591;DHT22;4333;48.322;14.340;2023-05-07T10:19:22;22.80;7.50
8591;DHT22;4333;48.322;14.340;2023-05-07T10:21:55;23.20;4.60
8591;DHT22;4333;48.322;14.340;2023-05-07T10:24:26;23.40;6.40
8591;DHT22;4333;48.322;14.340;2023-05-07T10:26:55;23.00;4.70
8591;DHT22;4333;48.322;14.340;2023-05-07T10:34:54;22.40;11.50
8591;DHT22;4333;48.322;14.340;2023-05-07T10:37:23;23.00;14.20
8591;DHT22;4333;48.322;14.340;2023-05-07T10:39:49;23.40;8.80
8591;DHT22;4333;48.322;14.340;2023-05-07T10:42:16;23.20;7.50
8591;DHT22;4333;48.322;14.340;2023-05-07T10:44:42;22.80;6.90
8591;DHT22;4333;48.322;14.340;2023-05-07T10:47:12;22.90;7.80
8591;DHT22;4333;48.322;14.340;2023-05-07T10:52:32;23.10;6.40
8591;DHT22;4333;48.322;14.340;2023-05-07T10:57:42;22.90;14.70
8591;DHT22;4333;48.322;14.340;2023-05-07T11:05:28;23.70;6.90
8591;DHT22;4333;48.322;14.340;2023-05-07T11:07:55;23.80;6.90
8591;DHT22;4333;48.322;14.340;2023-05-07T11:10:59;23.10;4.40
8591;DHT22;4333;48.322;14.340;2023-05-07T11:13:40;22.40;7.30
8591;DHT22;4333;48.322;14.340;2023-05-07T11:16:05;22.40;7.80
8591;DHT22;4333;48.322;14.340;2023-05-07T11:21:41;22.60;2.50
8591;DHT22;4333;48.322;14.340;2023-05-07T11:24:10;22.50;4.20
8591;DHT22;4333;48.322;14.340;2023-05-07T11:26:51;22.80;5.80
8591;DHT22;4333;48.322;14.340;2023-05-07T11:29:21;22.40;6.10
8591;DHT22;4333;48.322;14.340;2023-05-07T11:31:53;22.50;4.80
8591;DHT22;4333;48.322;14.340;2023-05-07T11:34:24;22.80;6.80
8591;DHT22;4333;48.322;14.340;2023-05-07T11:36:55;23.30;2.80
8591;DHT22;4333;48.322;14.340;2023-05-07T11:41:51;23.20;3.70
8591;DHT22;4333;48.322;14.340;2023-05-07T11:44:22;22.80;2.90
8591;DHT22;4333;48.322;14.340;2023-05-07T11:46:54;22.40;8.20
8591;DHT22;4333;48.322;14.340;2023-05-07T11:49:20;22.90;8.90
8591;DHT22;4333;48.322;14.340;2023-05-07T11:51:50;22.60;8.50
8591;DHT22;4333;48.322;14.340;2023-05-07T11:54:21;22.40;9.50
8591;DHT22;4333;48.322;14.340;2023-05-07T11:56:47;21.90;11.90
8591;DHT22;4333;48.322;14.340;2023-05-07T11:59:18;21.80;12.20
8591;DHT22;4333;48.322;14.340;2023-05-07T12:01:55;22.10;17.50
8591;DHT22;4333;48.322;14.340;2023-05-07T12:04:30;22.60;11.00
8591;DHT22;4333;48.322;14.340;2023-05-07T12:06:55;23.00;12.10
8591;DHT22;4333;48.322;14.340;2023-05-07T12:09:21;23.60;8.00
8591;DHT22;4333;48.322;14.340;2023-05-07T12:11:51;23.00;2.90
8591;DHT22;4333;48.322;14.340;2023-05-07T12:14:17;23.00;7.00
8591;DHT22;4333;48.322;14.340;2023-05-07T12:16:45;23.40;4.70
8591;DHT22;4333;48.322;14.340;2023-05-07T12:19:13;23.10;1.00
8591;DHT22;4333;48.322;14.340;2023-05-07T12:21:39;23.30;1.80
8591;DHT22;4333;48.322;14.340;2023-05-07T12:24:05;23.30;2.10
8591;DHT22;4333;48.322;14.340;2023-05-07T12:26:31;23.00;3.80
8591;DHT22;4333;48.322;14.340;2023-05-07T12:28:57;22.80;2.70
8591;DHT22;4333;48.322;14.340;2023-05-07T12:31:27;23.10;4.20
8591;DHT22;4333;48.322;14.340;2023-05-07T12:33:53;23.10;4.40
8591;DHT22;4333;48.322;14.340;2023-05-07T12:36:18;23.00;2.00
8591;DHT22;4333;48.322;14.340;2023-05-07T12:38:52;23.20;2.40
8591;DHT22;4333;48.322;14.340;2023-05-07T12:41:19;23.30;1.00
8591;DHT22;4333;48.322;14.340;2023-05-07T12:43:56;23.10;1.00
8591;DHT22;4333;48.322;14.340;2023-05-07T12:46:31;23.60;1.00
8591;DHT22;4333;48.322;14.340;2023-05-07T12:48:57;23.50;1.00
8591;DHT22;4333;48.322;14.340;2023-05-07T12:51:24;22.90;1.00
8591;DHT22;4333;48.322;14.340;2023-05-07T12:53:49;22.70;1.00
8591;DHT22;4333;48.322;14.340;2023-05-07T12:56:18;23.00;1.90
8591;DHT22;4333;48.322;14.340;2023-05-07T12:58:44;23.10;1.00
8591;DHT22;4333;48.322;14.340;2023-05-07T13:01:10;23.10;1.80
8591;DHT22;4333;48.322;14.340;2023-05-07T13:03:58;23.20;1.00
8591;DHT22;4333;48.322;14.340;2023-05-07T13:06:35;23.70;1.20
8591;DHT22;4333;48.322;14.340;2023-05-07T13:09:00;24.40;1.00
8591;DHT22;4333;48.322;14.340;2023-05-07T13:11:26;24.60;1.00
8591;DHT22;4333;48.322;14.340;2023-05-07T13:13:55;23.70;1.00
8591;DHT22;4333;48.322;14.340;2023-05-07T13:16:20;23.10;1.00
8591;DHT22;4333;48.322;14.340;2023-05-07T13:18:49;22.90;1.00
8591;DHT22;4333;48.322;14.340;2023-05-07T13:21:17;22.70;1.00
8591;DHT22;4333;48.322;14.340;2023-05-07T13:23:42;22.60;2.20
8591;DHT22;4333;48.322;14.340;2023-05-07T13:26:08;22.50;1.00
8591;DHT22;4333;48.322;14.340;2023-05-07T13:28:37;22.60;1.00
8591;DHT22;4333;48.322;14.340;2023-05-07T13:31:05;22.70;1.00
8591;DHT22;4333;48.322;14.340;2023-05-07T13:33:31;22.90;1.00
8591;DHT22;4333;48.322;14.340;2023-05-07T13:35:57;23.10;1.00
8591;DHT22;4333;48.322;14.340;2023-05-07T13:38:26;23.20;1.00
8591;DHT22;4333;48.322;14.340;2023-05-07T13:40:57;23.40;1.00
8591;DHT22;4333;48.322;14.340;2023-05-07T13:43:24;23.20;1.00
8591;DHT22;4333;48.322;14.340;2023-05-07T13:45:54;22.90;1.00
8591;DHT22;4333;48.322;14.340;2023-05-07T13:48:22;22.90;1.00
8591;DHT22;4333;48.322;14.340;2023-05-07T13:50:55;22.90;1.00
8591;DHT22;4333;48.322;14.340;2023-05-07T13:53:21;23.50;1.00
8591;DHT22;4333;48.322;14.340;2023-05-07T13:55:53;24.00;1.00
8591;DHT22;4333;48.322;14.340;2023-05-07T13:58:18;23.50;1.00
8591;DHT22;4333;48.322;14.340;2023-05-07T14:00:50;23.30;1.00
8591;DHT22;4333;48.322;14.340;2023-05-07T14:03:24;23.60;1.00
8591;DHT22;4333;48.322;14.340;2023-05-07T14:05:55;23.70;1.00
8591;DHT22;4333;48.322;14.340;2023-05-07T14:08:23;23.60;1.00
8591;DHT22;4333;48.322;14.340;2023-05-07T14:10:55;24.10;1.00
8591;DHT22;4333;48.322;14.340;2023-05-07T14:16:07;24.80;1.00
8591;DHT22;4333;48.322;14.340;2023-05-07T14:18:36;24.40;1.00
8591;DHT22;4333;48.322;14.340;2023-05-07T14:21:11;23.60;1.00
8591;DHT22;4333;48.322;14.340;2023-05-07T14:23:42;23.20;1.00
8591;DHT22;4333;48.322;14.340;2023-05-07T14:26:19;23.30;1.00
8591;DHT22;4333;48.322;14.340;2023-05-07T14:28:46;23.30;1.00
8591;DHT22;4333;48.322;14.340;2023-05-07T14:31:13;23.30;1.00
8591;DHT22;4333;48.322;14.340;2023-05-07T14:33:44;23.00;1.00
8591;DHT22;4333;48.322;14.340;2023-05-07T14:36:13;22.80;1.00
8591;DHT22;4333;48.322;14.340;2023-05-07T14:38:41;22.60;1.00
8591;DHT22;4333;48.322;14.340;2023-05-07T14:41:07;22.70;1.00
8591;DHT22;4333;48.322;14.340;2023-05-07T14:43:35;22.70;1.00
8591;DHT22;4333;48.322;14.340;2023-05-07T14:46:01;22.50;1.00
8591;DHT22;4333;48.322;14.340;2023-05-07T14:48:27;22.20;1.00
8591;DHT22;4333;48.322;14.340;2023-05-07T14:50:52;22.20;1.00
8591;DHT22;4333;48.322;14.340;2023-05-07T14:53:18;22.20;1.00
8591;DHT22;4333;48.322;14.340;2023-05-07T14:55:44;22.40;2.60
8591;DHT22;4333;48.322;14.340;2023-05-07T14:58:11;22.60;1.20
8591;DHT22;4333;48.322;14.340;2023-05-07T15:00:37;22.90;1.00
8591;DHT22;4333;48.322;14.340;2023-05-07T15:03:08;23.20;1.00
8591;DHT22;4333;48.322;14.340;2023-05-07T15:05:37;23.30;1.00
8591;DHT22;4333;48.322;14.340;2023-05-07T15:08:03;23.20;1.00
8591;DHT22;4333;48.322;14.340;2023-05-07T15:10:29;23.40;1.00
8591;DHT22;4333;48.322;14.340;2023-05-07T15:12:55;23.30;1.00
8591;DHT22;4333;48.322;14.340;2023-05-07T15:15:26;23.20;1.00
8591;DHT22;4333;48.322;14.340;2023-05-07T15:17:52;23.10;1.00
8591;DHT22;4333;48.322;14.340;2023-05-07T15:20:20;23.10;1.00
8591;DHT22;4333;48.322;14.340;2023-05-07T15:22:48;22.80;1.00
8591;DHT22;4333;48.322;14.340;2023-05-07T15:25:14;22.90;1.00
8591;DHT22;4333;48.322;14.340;2023-05-07T15:27:40;22.70;1.00
8591;DHT22;4333;48.322;14.340;2023-05-07T15:30:07;22.40;1.00
8591;DHT22;4333;48.322;14.340;2023-05-07T15:32:36;22.20;1.00
8591;DHT22;4333;48.322;14.340;2023-05-07T15:35:02;22.00;1.00
8591;DHT22;4333;48.322;14.340;2023-05-07T15:37:31;21.90;1.00
8591;DHT22;4333;48.322;14.340;2023-05-07T15:39:59;22.00;1.00
8591;DHT22;4333;48.322;14.340;2023-05-07T15:42:30;22.00;1.00
8591;DHT22;4333;48.322;14.340;2023-05-07T15:44:56;21.90;1.30
8591;DHT22;4333;48.322;14.340;2023-05-07T15:47:21;21.90;3.20
8591;DHT22;4333;48.322;14.340;2023-05-07T15:49:50;21.40;7.00
8591;DHT22;4333;48.322;14.340;2023-05-07T15:52:15;21.20;10.80
8591;DHT22;4333;48.322;14.340;2023-05-07T15:54:44;20.90;13.60
8591;DHT22;4333;48.322;14.340;2023-05-07T15:57:12;20.80;16.00
8591;DHT22;4333;48.322;14.340;2023-05-07T15:59:43;20.70;18.50
8591;DHT22;4333;48.322;14.340;2023-05-07T16:02:09;20.40;18.50
8591;DHT22;4333;48.322;14.340;2023-05-07T16:04:35;20.20;19.90
8591;DHT22;4333;48.322;14.340;2023-05-07T16:07:01;20.10;20.90
8591;DHT22;4333;48.322;14.340;2023-05-07T16:09:27;20.10;24.10
8591;DHT22;4333;48.322;14.340;2023-05-07T16:11:53;20.20;22.90
8591;DHT22;4333;48.322;14.340;2023-05-07T16:14:19;20.30;22.40
8591;DHT22;4333;48.322;14.340;2023-05-07T16:16:46;20.00;23.10
8591;DHT22;4333;48.322;14.340;2023-05-07T16:19:17;20.00;24.80
8591;DHT22;4333;48.322;14.340;2023-05-07T16:21:45;20.00;26.00